Big Bend Natl Park, Texas
Current Conditions -  °F | °C
As of 7:35 PM on Friday 21 Nov 2014 (Local Time) from KPRS Reporting Station
Clear Clear  
Wind Chill: 63°   Ceiling: Unl
Heat Index: 63°   Visibility: 10mi
Dew Point: 40°   Wind: 7mph
Humidity: 44%   Direction: 360°N
Pressure: 29.88"   Gusts: NA
Location:  29.2°N, 103.2°W
Report Text: KPRS 220135Z AUTO 36006KT 10SM CLR 17/05 A2988 RMK AO2 T01700046
Loading
Personal Weather Stations






























Interactive Weather Map New forecast layout! Learn more

10-Day Weather Forecast

Advertisements
Track Severe Weather on mobile